sensor_id;sensor_type;location;lat;lon;timestamp;temperature;humidity
27224;DHT22;14965;50.660;13.226;2023-06-19T00:01:25;16.70;99.90
27224;DHT22;14965;50.660;13.226;2023-06-19T00:03:51;16.80;99.90
27224;DHT22;14965;50.660;13.226;2023-06-19T00:06:18;16.90;99.90
27224;DHT22;14965;50.660;13.226;2023-06-19T00:08:44;16.90;99.90
27224;DHT22;14965;50.660;13.226;2023-06-19T00:11:10;17.00;99.90
27224;DHT22;14965;50.660;13.226;2023-06-19T00:13:36;17.10;99.90
27224;DHT22;14965;50.660;13.226;2023-06-19T00:16:01;17.10;99.90
27224;DHT22;14965;50.660;13.226;2023-06-19T00:18:27;17.10;99.90
27224;DHT22;14965;50.660;13.226;2023-06-19T00:20:53;17.20;99.90
27224;DHT22;14965;50.660;13.226;2023-06-19T00:23:21;17.20;99.90
27224;DHT22;14965;50.660;13.226;2023-06-19T00:25:47;17.20;99.90
27224;DHT22;14965;50.660;13.226;2023-06-19T00:28:13;17.20;99.90
27224;DHT22;14965;50.660;13.226;2023-06-19T00:30:39;17.20;99.90
27224;DHT22;14965;50.660;13.226;2023-06-19T00:33:05;17.20;99.90
27224;DHT22;14965;50.660;13.226;2023-06-19T00:35:31;17.20;99.90
27224;DHT22;14965;50.660;13.226;2023-06-19T00:37:57;17.20;99.90
27224;DHT22;14965;50.660;13.226;2023-06-19T00:40:27;17.30;99.90
27224;DHT22;14965;50.660;13.226;2023-06-19T00:42:55;17.30;99.90
27224;DHT22;14965;50.660;13.226;2023-06-19T00:45:21;17.30;99.90
27224;DHT22;14965;50.660;13.226;2023-06-19T00:47:47;17.40;99.90
27224;DHT22;14965;50.660;13.226;2023-06-19T00:50:12;17.50;99.90
27224;DHT22;14965;50.660;13.226;2023-06-19T00:52:39;17.60;99.90
27224;DHT22;14965;50.660;13.226;2023-06-19T00:55:07;17.60;99.90
27224;DHT22;14965;50.660;13.226;2023-06-19T00:57:34;17.60;99.90
27224;DHT22;14965;50.660;13.226;2023-06-19T01:00:00;17.60;99.90
27224;DHT22;14965;50.660;13.226;2023-06-19T01:02:27;17.60;99.90
27224;DHT22;14965;50.660;13.226;2023-06-19T01:04:53;17.70;99.90
27224;DHT22;14965;50.660;13.226;2023-06-19T01:07:23;17.70;99.90
27224;DHT22;14965;50.660;13.226;2023-06-19T01:09:59;17.80;99.90
27224;DHT22;14965;50.660;13.226;2023-06-19T01:12:30;17.80;99.90
27224;DHT22;14965;50.660;13.226;2023-06-19T01:15:03;17.90;99.90
27224;DHT22;14965;50.660;13.226;2023-06-19T01:17:32;17.90;99.90
27224;DHT22;14965;50.660;13.226;2023-06-19T01:20:01;17.90;99.90
27224;DHT22;14965;50.660;13.226;2023-06-19T01:22:29;17.90;99.90
27224;DHT22;14965;50.660;13.226;2023-06-19T01:24:56;18.00;99.90
27224;DHT22;14965;50.660;13.226;2023-06-19T01:27:22;18.00;99.90
27224;DHT22;14965;50.660;13.226;2023-06-19T01:29:49;18.00;99.90
27224;DHT22;14965;50.660;13.226;2023-06-19T01:32:20;18.10;99.90
27224;DHT22;14965;50.660;13.226;2023-06-19T01:34:52;18.10;99.90
27224;DHT22;14965;50.660;13.226;2023-06-19T01:37:24;18.10;99.90
27224;DHT22;14965;50.660;13.226;2023-06-19T01:39:52;18.10;99.90
27224;DHT22;14965;50.660;13.226;2023-06-19T01:42:21;18.10;99.90
27224;DHT22;14965;50.660;13.226;2023-06-19T01:44:47;18.10;99.90
27224;DHT22;14965;50.660;13.226;2023-06-19T01:47:14;18.10;99.90
27224;DHT22;14965;50.660;13.226;2023-06-19T01:49:40;18.20;99.90
27224;DHT22;14965;50.660;13.226;2023-06-19T01:52:06;18.20;99.90
27224;DHT22;14965;50.660;13.226;2023-06-19T01:54:32;18.30;99.90
27224;DHT22;14965;50.660;13.226;2023-06-19T01:56:59;18.30;99.90
27224;DHT22;14965;50.660;13.226;2023-06-19T01:59:25;18.30;99.90
27224;DHT22;14965;50.660;13.226;2023-06-19T02:01:51;18.30;99.90
27224;DHT22;14965;50.660;13.226;2023-06-19T02:04:17;18.30;99.90
27224;DHT22;14965;50.660;13.226;2023-06-19T02:06:43;18.20;99.90
27224;DHT22;14965;50.660;13.226;2023-06-19T02:09:08;18.20;99.90
27224;DHT22;14965;50.660;13.226;2023-06-19T02:11:34;18.20;99.90
27224;DHT22;14965;50.660;13.226;2023-06-19T02:14:02;18.20;99.90
27224;DHT22;14965;50.660;13.226;2023-06-19T02:16:27;18.20;99.90
27224;DHT22;14965;50.660;13.226;2023-06-19T02:18:53;18.20;99.90
27224;DHT22;14965;50.660;13.226;2023-06-19T02:21:19;18.30;99.90
27224;DHT22;14965;50.660;13.226;2023-06-19T02:23:45;18.30;99.90
27224;DHT22;14965;50.660;13.226;2023-06-19T02:26:11;18.20;99.90
27224;DHT22;14965;50.660;13.226;2023-06-19T02:28:37;18.20;99.90
27224;DHT22;14965;50.660;13.226;2023-06-19T02:31:04;18.30;99.90
27224;DHT22;14965;50.660;13.226;2023-06-19T02:33:30;18.20;99.90
27224;DHT22;14965;50.660;13.226;2023-06-19T02:35:55;18.30;99.90
27224;DHT22;14965;50.660;13.226;2023-06-19T02:38:21;18.30;99.90
27224;DHT22;14965;50.660;13.226;2023-06-19T02:40:47;18.30;99.90
27224;DHT22;14965;50.660;13.226;2023-06-19T02:43:13;18.30;99.90
27224;DHT22;14965;50.660;13.226;2023-06-19T02:45:39;18.30;99.90
27224;DHT22;14965;50.660;13.226;2023-06-19T02:48:06;18.30;99.90
27224;DHT22;14965;50.660;13.226;2023-06-19T02:50:32;18.40;99.90
27224;DHT22;14965;50.660;13.226;2023-06-19T02:52:58;18.40;99.90
27224;DHT22;14965;50.660;13.226;2023-06-19T02:55:23;18.40;99.90
27224;DHT22;14965;50.660;13.226;2023-06-19T02:57:49;18.40;99.90
27224;DHT22;14965;50.660;13.226;2023-06-19T03:00:15;18.50;99.90
27224;DHT22;14965;50.660;13.226;2023-06-19T03:02:41;18.50;99.90
27224;DHT22;14965;50.660;13.226;2023-06-19T03:05:09;18.40;99.90
27224;DHT22;14965;50.660;13.226;2023-06-19T03:07:35;18.40;99.90
27224;DHT22;14965;50.660;13.226;2023-06-19T03:10:00;18.40;99.90
27224;DHT22;14965;50.660;13.226;2023-06-19T03:12:26;18.50;99.90
27224;DHT22;14965;50.660;13.226;2023-06-19T03:14:52;18.40;99.90
27224;DHT22;14965;50.660;13.226;2023-06-19T03:17:18;18.50;99.90
27224;DHT22;14965;50.660;13.226;2023-06-19T03:19:44;18.40;99.90
27224;DHT22;14965;50.660;13.226;2023-06-19T03:22:11;18.50;99.90
27224;DHT22;14965;50.660;13.226;2023-06-19T03:24:37;18.50;99.90
27224;DHT22;14965;50.660;13.226;2023-06-19T03:27:03;18.50;99.90
27224;DHT22;14965;50.660;13.226;2023-06-19T03:29:29;18.50;99.90
27224;DHT22;14965;50.660;13.226;2023-06-19T03:31:55;18.50;99.90
27224;DHT22;14965;50.660;13.226;2023-06-19T03:34:21;18.50;99.90
27224;DHT22;14965;50.660;13.226;2023-06-19T03:36:47;18.50;99.90
27224;DHT22;14965;50.660;13.226;2023-06-19T03:39:14;18.50;99.90
27224;DHT22;14965;50.660;13.226;2023-06-19T03:41:40;18.60;99.90
27224;DHT22;14965;50.660;13.226;2023-06-19T03:44:06;18.60;99.90
27224;DHT22;14965;50.660;13.226;2023-06-19T03:46:32;18.60;99.90
27224;DHT22;14965;50.660;13.226;2023-06-19T03:48:57;18.70;99.90
27224;DHT22;14965;50.660;13.226;2023-06-19T03:51:23;18.70;99.90
27224;DHT22;14965;50.660;13.226;2023-06-19T03:53:49;18.70;99.90
27224;DHT22;14965;50.660;13.226;2023-06-19T03:56:16;18.70;99.90
27224;DHT22;14965;50.660;13.226;2023-06-19T03:58:42;18.70;99.90
27224;DHT22;14965;50.660;13.226;2023-06-19T04:01:08;18.80;99.90
27224;DHT22;14965;50.660;13.226;2023-06-19T04:03:34;18.80;99.90
27224;DHT22;14965;50.660;13.226;2023-06-19T04:06:00;18.80;99.90
27224;DHT22;14965;50.660;13.226;2023-06-19T04:08:26;18.80;99.90
27224;DHT22;14965;50.660;13.226;2023-06-19T04:10:51;18.80;99.90
27224;DHT22;14965;50.660;13.226;2023-06-19T04:13:19;18.80;99.90
27224;DHT22;14965;50.660;13.226;2023-06-19T04:15:45;18.80;99.90
27224;DHT22;14965;50.660;13.226;2023-06-19T04:18:10;18.80;99.90
27224;DHT22;14965;50.660;13.226;2023-06-19T04:20:36;18.80;99.90
27224;DHT22;14965;50.660;13.226;2023-06-19T04:23:02;18.70;99.90
27224;DHT22;14965;50.660;13.226;2023-06-19T04:25:28;18.70;99.90
27224;DHT22;14965;50.660;13.226;2023-06-19T04:27:54;18.60;99.90
27224;DHT22;14965;50.660;13.226;2023-06-19T04:30:21;18.60;99.90
27224;DHT22;14965;50.660;13.226;2023-06-19T04:32:47;18.70;99.90
27224;DHT22;14965;50.660;13.226;2023-06-19T04:35:13;18.70;99.90
27224;DHT22;14965;50.660;13.226;2023-06-19T04:37:38;18.70;99.90
27224;DHT22;14965;50.660;13.226;2023-06-19T04:40:05;18.60;99.90
27224;DHT22;14965;50.660;13.226;2023-06-19T04:42:32;18.60;99.90
27224;DHT22;14965;50.660;13.226;2023-06-19T04:44:58;18.60;99.90
27224;DHT22;14965;50.660;13.226;2023-06-19T04:47:25;18.60;99.90
27224;DHT22;14965;50.660;13.226;2023-06-19T04:49:51;18.70;99.90
27224;DHT22;14965;50.660;13.226;2023-06-19T04:52:17;18.70;99.90
27224;DHT22;14965;50.660;13.226;2023-06-19T04:54:42;18.70;99.90
27224;DHT22;14965;50.660;13.226;2023-06-19T04:57:08;18.80;99.90
27224;DHT22;14965;50.660;13.226;2023-06-19T04:59:34;18.80;99.90
27224;DHT22;14965;50.660;13.226;2023-06-19T05:02:00;18.80;99.90
27224;DHT22;14965;50.660;13.226;2023-06-19T05:04:27;18.80;99.90
27224;DHT22;14965;50.660;13.226;2023-06-19T05:06:53;18.80;99.90
27224;DHT22;14965;50.660;13.226;2023-06-19T05:09:19;18.80;99.90
27224;DHT22;14965;50.660;13.226;2023-06-19T05:11:45;18.80;99.90
27224;DHT22;14965;50.660;13.226;2023-06-19T05:14:11;18.80;99.90
27224;DHT22;14965;50.660;13.226;2023-06-19T05:16:36;18.80;99.90
27224;DHT22;14965;50.660;13.226;2023-06-19T05:19:02;18.70;99.90
27224;DHT22;14965;50.660;13.226;2023-06-19T05:21:29;18.80;99.90
27224;DHT22;14965;50.660;13.226;2023-06-19T05:23:55;18.80;99.90
27224;DHT22;14965;50.660;13.226;2023-06-19T05:26:21;18.80;99.90
27224;DHT22;14965;50.660;13.226;2023-06-19T05:28:47;18.90;99.90
27224;DHT22;14965;50.660;13.226;2023-06-19T05:31:13;18.90;99.90
27224;DHT22;14965;50.660;13.226;2023-06-19T05:33:40;18.90;99.90
27224;DHT22;14965;50.660;13.226;2023-06-19T05:36:05;18.90;99.90
27224;DHT22;14965;50.660;13.226;2023-06-19T05:38:33;19.00;99.90
27224;DHT22;14965;50.660;13.226;2023-06-19T05:40:59;19.00;99.90
27224;DHT22;14965;50.660;13.226;2023-06-19T05:43:25;19.10;99.90
27224;DHT22;14965;50.660;13.226;2023-06-19T05:45:51;19.10;99.90
27224;DHT22;14965;50.660;13.226;2023-06-19T05:48:16;19.20;99.90
27224;DHT22;14965;50.660;13.226;2023-06-19T05:50:42;19.20;99.90
27224;DHT22;14965;50.660;13.226;2023-06-19T05:53:08;19.30;99.90
27224;DHT22;14965;50.660;13.226;2023-06-19T05:55:35;19.30;99.90
27224;DHT22;14965;50.660;13.226;2023-06-19T05:58:02;19.40;99.90
27224;DHT22;14965;50.660;13.226;2023-06-19T06:00:28;19.40;99.90
27224;DHT22;14965;50.660;13.226;2023-06-19T06:02:54;19.50;99.90
27224;DHT22;14965;50.660;13.226;2023-06-19T06:05:20;19.60;99.90
27224;DHT22;14965;50.660;13.226;2023-06-19T06:07:46;19.70;99.90
27224;DHT22;14965;50.660;13.226;2023-06-19T06:10:12;19.80;99.90
27224;DHT22;14965;50.660;13.226;2023-06-19T06:12:39;19.90;99.90
27224;DHT22;14965;50.660;13.226;2023-06-19T06:15:06;20.00;99.90
27224;DHT22;14965;50.660;13.226;2023-06-19T06:17:32;20.10;99.90
27224;DHT22;14965;50.660;13.226;2023-06-19T06:19:58;20.30;99.90
27224;DHT22;14965;50.660;13.226;2023-06-19T06:22:24;20.50;99.90
27224;DHT22;14965;50.660;13.226;2023-06-19T06:24:50;20.80;99.90
27224;DHT22;14965;50.660;13.226;2023-06-19T06:27:15;21.00;99.90
27224;DHT22;14965;50.660;13.226;2023-06-19T06:29:43;21.20;99.90
27224;DHT22;14965;50.660;13.226;2023-06-19T06:32:09;21.50;99.90
27224;DHT22;14965;50.660;13.226;2023-06-19T06:34:35;21.80;99.90
27224;DHT22;14965;50.660;13.226;2023-06-19T06:37:01;21.90;99.90
27224;DHT22;14965;50.660;13.226;2023-06-19T06:39:28;22.00;99.90
27224;DHT22;14965;50.660;13.226;2023-06-19T06:41:54;22.00;99.90
27224;DHT22;14965;50.660;13.226;2023-06-19T06:44:20;21.90;99.90
27224;DHT22;14965;50.660;13.226;2023-06-19T06:46:47;21.90;99.90
27224;DHT22;14965;50.660;13.226;2023-06-19T06:49:13;21.80;99.90
27224;DHT22;14965;50.660;13.226;2023-06-19T06:51:38;21.70;99.90
27224;DHT22;14965;50.660;13.226;2023-06-19T06:54:04;21.60;99.90
27224;DHT22;14965;50.660;13.226;2023-06-19T06:56:30;21.60;99.90
27224;DHT22;14965;50.660;13.226;2023-06-19T06:58:56;21.50;99.90
27224;DHT22;14965;50.660;13.226;2023-06-19T07:01:22;21.40;99.90
27224;DHT22;14965;50.660;13.226;2023-06-19T07:03:49;21.30;99.90
27224;DHT22;14965;50.660;13.226;2023-06-19T07:06:15;21.40;99.90
27224;DHT22;14965;50.660;13.226;2023-06-19T07:08:40;21.40;99.90
27224;DHT22;14965;50.660;13.226;2023-06-19T07:11:06;21.40;99.90
27224;DHT22;14965;50.660;13.226;2023-06-19T07:13:32;21.30;99.90
27224;DHT22;14965;50.660;13.226;2023-06-19T07:15:58;21.30;99.90
27224;DHT22;14965;50.660;13.226;2023-06-19T07:18:24;21.30;99.90
27224;DHT22;14965;50.660;13.226;2023-06-19T07:20:52;21.30;99.90
27224;DHT22;14965;50.660;13.226;2023-06-19T07:23:17;21.20;99.90
27224;DHT22;14965;50.660;13.226;2023-06-19T07:25:45;21.30;99.90
27224;DHT22;14965;50.660;13.226;2023-06-19T07:28:11;21.30;99.90
27224;DHT22;14965;50.660;13.226;2023-06-19T07:30:36;21.50;99.90
27224;DHT22;14965;50.660;13.226;2023-06-19T07:33:02;21.60;99.90
27224;DHT22;14965;50.660;13.226;2023-06-19T07:35:28;21.80;99.90
27224;DHT22;14965;50.660;13.226;2023-06-19T07:37:55;22.00;99.90
27224;DHT22;14965;50.660;13.226;2023-06-19T07:40:21;22.20;99.90
27224;DHT22;14965;50.660;13.226;2023-06-19T07:42:47;22.40;99.90
27224;DHT22;14965;50.660;13.226;2023-06-19T07:45:13;22.60;99.90
27224;DHT22;14965;50.660;13.226;2023-06-19T07:47:39;22.60;99.90
27224;DHT22;14965;50.660;13.226;2023-06-19T07:50:05;22.60;99.90
27224;DHT22;14965;50.660;13.226;2023-06-19T07:52:32;22.70;99.90
27224;DHT22;14965;50.660;13.226;2023-06-19T07:54:59;22.60;99.90
27224;DHT22;14965;50.660;13.226;2023-06-19T07:57:32;22.60;99.90
27224;DHT22;14965;50.660;13.226;2023-06-19T07:59:57;22.60;99.90
27224;DHT22;14965;50.660;13.226;2023-06-19T08:02:23;22.70;99.90
27224;DHT22;14965;50.660;13.226;2023-06-19T08:04:49;22.90;99.90
27224;DHT22;14965;50.660;13.226;2023-06-19T08:07:15;23.00;99.90
27224;DHT22;14965;50.660;13.226;2023-06-19T08:09:41;23.00;99.90
27224;DHT22;14965;50.660;13.226;2023-06-19T08:12:09;23.10;99.90
27224;DHT22;14965;50.660;13.226;2023-06-19T08:14:35;23.20;99.90
27224;DHT22;14965;50.660;13.226;2023-06-19T08:17:00;23.30;99.50
27224;DHT22;14965;50.660;13.226;2023-06-19T08:19:26;23.30;99.70
27224;DHT22;14965;50.660;13.226;2023-06-19T08:21:52;23.40;99.70
27224;DHT22;14965;50.660;13.226;2023-06-19T08:24:18;23.40;99.90
27224;DHT22;14965;50.660;13.226;2023-06-19T08:26:44;23.40;99.90
27224;DHT22;14965;50.660;13.226;2023-06-19T08:29:11;23.40;99.30
27224;DHT22;14965;50.660;13.226;2023-06-19T08:31:37;23.40;97.90
27224;DHT22;14965;50.660;13.226;2023-06-19T08:34:02;23.40;96.50
27224;DHT22;14965;50.660;13.226;2023-06-19T08:36:28;23.50;97.80
27224;DHT22;14965;50.660;13.226;2023-06-19T08:38:54;23.70;96.00
27224;DHT22;14965;50.660;13.226;2023-06-19T08:41:20;23.90;95.90
27224;DHT22;14965;50.660;13.226;2023-06-19T08:43:46;24.20;94.90
27224;DHT22;14965;50.660;13.226;2023-06-19T08:46:15;24.60;94.40
27224;DHT22;14965;50.660;13.226;2023-06-19T08:48:41;25.00;93.10
27224;DHT22;14965;50.660;13.226;2023-06-19T08:51:07;25.40;91.30
27224;DHT22;14965;50.660;13.226;2023-06-19T08:53:36;25.80;90.70
27224;DHT22;14965;50.660;13.226;2023-06-19T08:56:10;26.20;91.50
27224;DHT22;14965;50.660;13.226;2023-06-19T08:58:36;26.50;90.20
27224;DHT22;14965;50.660;13.226;2023-06-19T09:01:02;26.60;84.80
27224;DHT22;14965;50.660;13.226;2023-06-19T09:03:29;26.60;80.40
27224;DHT22;14965;50.660;13.226;2023-06-19T09:05:55;26.70;80.70
27224;DHT22;14965;50.660;13.226;2023-06-19T09:08:22;26.70;80.00
27224;DHT22;14965;50.660;13.226;2023-06-19T09:10:55;26.60;80.40
27224;DHT22;14965;50.660;13.226;2023-06-19T09:13:22;26.50;78.50
27224;DHT22;14965;50.660;13.226;2023-06-19T09:15:48;26.50;78.70
27224;DHT22;14965;50.660;13.226;2023-06-19T09:18:22;26.40;77.20
27224;DHT22;14965;50.660;13.226;2023-06-19T09:20:52;26.40;79.00
27224;DHT22;14965;50.660;13.226;2023-06-19T09:23:19;26.20;75.10
27224;DHT22;14965;50.660;13.226;2023-06-19T09:25:46;25.90;75.60
27224;DHT22;14965;50.660;13.226;2023-06-19T09:28:17;25.70;78.20
27224;DHT22;14965;50.660;13.226;2023-06-19T09:30:52;25.40;77.50
27224;DHT22;14965;50.660;13.226;2023-06-19T09:33:22;25.20;76.80
27224;DHT22;14965;50.660;13.226;2023-06-19T09:35:50;25.10;77.00
27224;DHT22;14965;50.660;13.226;2023-06-19T09:38:16;25.00;81.80
27224;DHT22;14965;50.660;13.226;2023-06-19T09:40:43;25.00;80.10
27224;DHT22;14965;50.660;13.226;2023-06-19T09:43:11;25.00;84.30
27224;DHT22;14965;50.660;13.226;2023-06-19T09:45:39;25.00;84.00
27224;DHT22;14965;50.660;13.226;2023-06-19T09:48:06;25.00;83.40
27224;DHT22;14965;50.660;13.226;2023-06-19T09:50:37;25.10;80.10
27224;DHT22;14965;50.660;13.226;2023-06-19T09:53:06;25.20;80.20
27224;DHT22;14965;50.660;13.226;2023-06-19T09:55:32;25.30;80.70
27224;DHT22;14965;50.660;13.226;2023-06-19T09:57:59;25.50;78.80
27224;DHT22;14965;50.660;13.226;2023-06-19T10:00:27;25.70;77.10
27224;DHT22;14965;50.660;13.226;2023-06-19T10:02:53;25.80;77.50
27224;DHT22;14965;50.660;13.226;2023-06-19T10:05:28;25.90;78.60
27224;DHT22;14965;50.660;13.226;2023-06-19T10:07:54;26.00;78.30
27224;DHT22;14965;50.660;13.226;2023-06-19T10:10:24;26.20;80.30
27224;DHT22;14965;50.660;13.226;2023-06-19T10:12:52;26.20;82.10
27224;DHT22;14965;50.660;13.226;2023-06-19T10:15:21;26.20;81.90
27224;DHT22;14965;50.660;13.226;2023-06-19T10:17:49;26.20;80.90
27224;DHT22;14965;50.660;13.226;2023-06-19T10:20:27;26.20;81.70
27224;DHT22;14965;50.660;13.226;2023-06-19T10:22:58;26.40;83.00
27224;DHT22;14965;50.660;13.226;2023-06-19T10:25:30;26.70;81.80
27224;DHT22;14965;50.660;13.226;2023-06-19T10:27:57;26.90;81.20
27224;DHT22;14965;50.660;13.226;2023-06-19T10:30:23;26.80;83.60
27224;DHT22;14965;50.660;13.226;2023-06-19T10:32:49;26.50;81.00
27224;DHT22;14965;50.660;13.226;2023-06-19T10:35:17;26.40;80.80
27224;DHT22;14965;50.660;13.226;2023-06-19T10:37:44;26.50;83.60
27224;DHT22;14965;50.660;13.226;2023-06-19T10:40:10;26.50;82.40
27224;DHT22;14965;50.660;13.226;2023-06-19T10:42:38;26.50;81.60
27224;DHT22;14965;50.660;13.226;2023-06-19T10:45:06;26.60;83.70
27224;DHT22;14965;50.660;13.226;2023-06-19T10:47:34;26.70;81.90
27224;DHT22;14965;50.660;13.226;2023-06-19T10:50:00;26.90;84.50
27224;DHT22;14965;50.660;13.226;2023-06-19T10:52:28;27.00;83.90
27224;DHT22;14965;50.660;13.226;2023-06-19T10:54:54;27.40;84.20
27224;DHT22;14965;50.660;13.226;2023-06-19T10:57:27;27.70;81.70
27224;DHT22;14965;50.660;13.226;2023-06-19T10:59:55;27.90;80.90
27224;DHT22;14965;50.660;13.226;2023-06-19T11:02:21;28.10;79.30
27224;DHT22;14965;50.660;13.226;2023-06-19T11:04:48;28.20;80.70
27224;DHT22;14965;50.660;13.226;2023-06-19T11:07:14;28.50;80.80
27224;DHT22;14965;50.660;13.226;2023-06-19T11:09:40;28.60;79.70
27224;DHT22;14965;50.660;13.226;2023-06-19T11:12:07;28.70;81.10
27224;DHT22;14965;50.660;13.226;2023-06-19T11:14:33;28.60;77.30
27224;DHT22;14965;50.660;13.226;2023-06-19T11:17:01;28.70;78.80
27224;DHT22;14965;50.660;13.226;2023-06-19T11:19:30;28.50;77.70
27224;DHT22;14965;50.660;13.226;2023-06-19T11:21:57;28.60;79.80
27224;DHT22;14965;50.660;13.226;2023-06-19T11:24:23;28.50;80.10
27224;DHT22;14965;50.660;13.226;2023-06-19T11:26:50;28.60;77.40
27224;DHT22;14965;50.660;13.226;2023-06-19T11:29:16;28.70;79.10
27224;DHT22;14965;50.660;13.226;2023-06-19T11:31:43;28.90;80.50
27224;DHT22;14965;50.660;13.226;2023-06-19T11:34:11;28.90;79.00
27224;DHT22;14965;50.660;13.226;2023-06-19T11:36:37;29.00;79.20
27224;DHT22;14965;50.660;13.226;2023-06-19T11:39:03;28.80;79.50
27224;DHT22;14965;50.660;13.226;2023-06-19T11:41:29;28.90;79.10
27224;DHT22;14965;50.660;13.226;2023-06-19T11:43:59;28.80;78.70
27224;DHT22;14965;50.660;13.226;2023-06-19T11:46:28;28.80;79.60
27224;DHT22;14965;50.660;13.226;2023-06-19T11:48:55;28.50;79.50
27224;DHT22;14965;50.660;13.226;2023-06-19T11:51:33;28.40;79.00
27224;DHT22;14965;50.660;13.226;2023-06-19T11:53:59;28.20;79.90
27224;DHT22;14965;50.660;13.226;2023-06-19T11:56:25;28.20;79.90
27224;DHT22;14965;50.660;13.226;2023-06-19T11:58:51;28.30;80.30
27224;DHT22;14965;50.660;13.226;2023-06-19T12:01:17;28.50;80.80
27224;DHT22;14965;50.660;13.226;2023-06-19T12:03:43;28.60;80.10
27224;DHT22;14965;50.660;13.226;2023-06-19T12:06:09;28.70;79.60
27224;DHT22;14965;50.660;13.226;2023-06-19T12:08:36;28.80;79.00
27224;DHT22;14965;50.660;13.226;2023-06-19T12:11:02;28.90;81.40
27224;DHT22;14965;50.660;13.226;2023-06-19T12:13:28;28.90;78.70
27224;DHT22;14965;50.660;13.226;2023-06-19T12:15:54;29.00;78.90
27224;DHT22;14965;50.660;13.226;2023-06-19T12:18:19;28.70;80.70
27224;DHT22;14965;50.660;13.226;2023-06-19T12:20:45;28.70;79.80
27224;DHT22;14965;50.660;13.226;2023-06-19T12:23:11;28.60;80.20
27224;DHT22;14965;50.660;13.226;2023-06-19T12:25:38;28.50;79.80
27224;DHT22;14965;50.660;13.226;2023-06-19T12:28:04;28.30;79.70
27224;DHT22;14965;50.660;13.226;2023-06-19T12:30:30;28.20;79.80
27224;DHT22;14965;50.660;13.226;2023-06-19T12:32:57;28.00;79.20
27224;DHT22;14965;50.660;13.226;2023-06-19T12:35:22;27.90;80.40
27224;DHT22;14965;50.660;13.226;2023-06-19T12:37:48;27.90;81.60
27224;DHT22;14965;50.660;13.226;2023-06-19T12:40:14;27.80;80.50
27224;DHT22;14965;50.660;13.226;2023-06-19T12:42:41;27.60;81.00
27224;DHT22;14965;50.660;13.226;2023-06-19T12:45:08;27.40;80.20
27224;DHT22;14965;50.660;13.226;2023-06-19T12:47:35;27.20;81.00
27224;DHT22;14965;50.660;13.226;2023-06-19T12:50:01;27.10;82.60
27224;DHT22;14965;50.660;13.226;2023-06-19T12:52:28;27.10;83.10
27224;DHT22;14965;50.660;13.226;2023-06-19T12:54:53;27.10;82.60
27224;DHT22;14965;50.660;13.226;2023-06-19T12:57:19;27.10;81.60
27224;DHT22;14965;50.660;13.226;2023-06-19T12:59:46;27.10;81.30
27224;DHT22;14965;50.660;13.226;2023-06-19T13:02:12;27.10;80.70
27224;DHT22;14965;50.660;13.226;2023-06-19T13:04:38;26.90;82.20
27224;DHT22;14965;50.660;13.226;2023-06-19T13:07:04;27.00;79.70
27224;DHT22;14965;50.660;13.226;2023-06-19T13:09:30;27.20;80.00
27224;DHT22;14965;50.660;13.226;2023-06-19T13:11:56;27.30;80.10
27224;DHT22;14965;50.660;13.226;2023-06-19T13:14:21;27.40;79.30
27224;DHT22;14965;50.660;13.226;2023-06-19T13:16:48;27.30;78.00
27224;DHT22;14965;50.660;13.226;2023-06-19T13:19:14;27.30;79.80
27224;DHT22;14965;50.660;13.226;2023-06-19T13:21:41;27.40;81.50
27224;DHT22;14965;50.660;13.226;2023-06-19T13:24:07;27.40;81.40
27224;DHT22;14965;50.660;13.226;2023-06-19T13:26:33;27.30;81.00
27224;DHT22;14965;50.660;13.226;2023-06-19T13:28:59;27.30;79.90
27224;DHT22;14965;50.660;13.226;2023-06-19T13:31:25;27.20;81.90
27224;DHT22;14965;50.660;13.226;2023-06-19T13:33:52;27.30;84.40
27224;DHT22;14965;50.660;13.226;2023-06-19T13:36:18;27.20;84.90
27224;DHT22;14965;50.660;13.226;2023-06-19T13:38:44;27.30;82.20
27224;DHT22;14965;50.660;13.226;2023-06-19T13:41:10;27.40;78.60
27224;DHT22;14965;50.660;13.226;2023-06-19T13:43:36;27.30;78.90
27224;DHT22;14965;50.660;13.226;2023-06-19T13:46:02;27.30;78.10
27224;DHT22;14965;50.660;13.226;2023-06-19T13:48:28;27.20;78.00
27224;DHT22;14965;50.660;13.226;2023-06-19T13:50:55;27.20;79.20
27224;DHT22;14965;50.660;13.226;2023-06-19T13:53:21;27.20;78.20
27224;DHT22;14965;50.660;13.226;2023-06-19T13:55:47;27.30;79.10
27224;DHT22;14965;50.660;13.226;2023-06-19T13:58:12;27.20;79.00
27224;DHT22;14965;50.660;13.226;2023-06-19T14:00:38;27.10;77.60
27224;DHT22;14965;50.660;13.226;2023-06-19T14:03:04;26.90;78.00
27224;DHT22;14965;50.660;13.226;2023-06-19T14:05:30;26.90;79.30
27224;DHT22;14965;50.660;13.226;2023-06-19T14:07:57;26.90;79.90
27224;DHT22;14965;50.660;13.226;2023-06-19T14:10:23;27.00;78.20
27224;DHT22;14965;50.660;13.226;2023-06-19T14:12:49;27.00;78.40
27224;DHT22;14965;50.660;13.226;2023-06-19T14:15:15;27.10;78.90
27224;DHT22;14965;50.660;13.226;2023-06-19T14:17:41;27.10;76.20
27224;DHT22;14965;50.660;13.226;2023-06-19T14:20:08;27.00;77.90
27224;DHT22;14965;50.660;13.226;2023-06-19T14:22:36;27.00;78.60
27224;DHT22;14965;50.660;13.226;2023-06-19T14:25:03;27.10;79.10
27224;DHT22;14965;50.660;13.226;2023-06-19T14:27:30;27.10;78.80
27224;DHT22;14965;50.660;13.226;2023-06-19T14:29:56;27.00;80.00
27224;DHT22;14965;50.660;13.226;2023-06-19T14:32:22;27.00;78.50
27224;DHT22;14965;50.660;13.226;2023-06-19T14:34:49;27.00;78.70
27224;DHT22;14965;50.660;13.226;2023-06-19T14:37:14;26.90;78.00
27224;DHT22;14965;50.660;13.226;2023-06-19T14:39:40;26.90;79.20
27224;DHT22;14965;50.660;13.226;2023-06-19T14:42:08;27.00;79.60
27224;DHT22;14965;50.660;13.226;2023-06-19T14:44:34;27.00;79.10
27224;DHT22;14965;50.660;13.226;2023-06-19T14:46:59;27.00;78.90
27224;DHT22;14965;50.660;13.226;2023-06-19T14:49:25;27.00;78.10
27224;DHT22;14965;50.660;13.226;2023-06-19T14:51:51;27.10;78.30
27224;DHT22;14965;50.660;13.226;2023-06-19T14:54:17;27.10;79.50
27224;DHT22;14965;50.660;13.226;2023-06-19T14:56:43;27.20;80.90
27224;DHT22;14965;50.660;13.226;2023-06-19T14:59:11;27.30;78.30
27224;DHT22;14965;50.660;13.226;2023-06-19T15:01:37;27.40;79.30
27224;DHT22;14965;50.660;13.226;2023-06-19T15:04:03;27.40;79.70
27224;DHT22;14965;50.660;13.226;2023-06-19T15:06:29;27.40;77.90
27224;DHT22;14965;50.660;13.226;2023-06-19T15:08:54;27.40;79.50
27224;DHT22;14965;50.660;13.226;2023-06-19T15:11:20;27.40;78.60